ZKJEE NZNS-NZWB
Flight info
| Callsign | ZKJEE |
|---|---|
| Flight time | N/A |
| Altitude | 9000 |
| Route | LUSRA DCT SUPEN |
| Aircraft | DHC6/L-SDFGR/C |
Departure
| Time | 2026-04-30 05:11 |
|---|---|
| Airport | Nelson Airport (NZNS) |
Arrival
| Time | N/A |
|---|---|
| Airport | Woodbourne Airport (NZWB) |
| Time | Latitude | Longitude | Altitude | Speed | Heading |
|---|---|---|---|---|---|
| 2026-04-30 05:03 | -41.29655 | 173.22450 | 15 ft | 0 kts | 39° |
| 2026-04-30 05:03 | -41.30124 | 173.21915 | 15 ft | 0 kts | 41° |
| 2026-04-30 05:10 | -41.30123 | 173.21915 | 15 ft | 0 kts | 41° |
| 2026-04-30 05:11 | -41.29949 | 173.22116 | 16 ft | 77 kts | 41° |
| 2026-04-30 05:11 | -41.29430 | 173.22714 | 215 ft | 103 kts | 41° |
| 2026-04-30 05:11 | -41.28913 | 173.23328 | 641 ft | 102 kts | 37° |
| 2026-04-30 05:12 | -41.28218 | 173.23718 | 993 ft | 114 kts | 18° |
| 2026-04-30 05:12 | -41.27451 | 173.24089 | 1372 ft | 122 kts | 19° |
| 2026-04-30 05:12 | -41.26642 | 173.24515 | 1744 ft | 128 kts | 20° |
| 2026-04-30 05:12 | -41.25807 | 173.24989 | 2106 ft | 133 kts | 22° |
| 2026-04-30 05:13 | -41.24955 | 173.25502 | 2460 ft | 137 kts | 25° |
| 2026-04-30 05:13 | -41.24084 | 173.26051 | 2815 ft | 140 kts | 27° |
| 2026-04-30 05:13 | -41.23204 | 173.26629 | 3162 ft | 144 kts | 28° |
| 2026-04-30 05:13 | -41.22305 | 173.27235 | 3515 ft | 146 kts | 28° |
| 2026-04-30 05:14 | -41.21367 | 173.27838 | 3874 ft | 148 kts | 26° |
| 2026-04-30 05:14 | -41.20447 | 173.28430 | 4220 ft | 150 kts | 28° |
| 2026-04-30 05:14 | -41.19517 | 173.29084 | 4570 ft | 152 kts | 31° |
| 2026-04-30 05:14 | -41.18574 | 173.29768 | 4927 ft | 154 kts | 32° |
| 2026-04-30 05:15 | -41.17682 | 173.30517 | 5275 ft | 155 kts | 37° |
| 2026-04-30 05:15 | -41.16789 | 173.31354 | 5640 ft | 155 kts | 40° |
| 2026-04-30 05:15 | -41.15928 | 173.32216 | 5989 ft | 155 kts | 42° |
| 2026-04-30 05:15 | -41.15089 | 173.33101 | 6334 ft | 156 kts | 43° |
| 2026-04-30 05:16 | -41.14257 | 173.34010 | 6682 ft | 157 kts | 44° |
| 2026-04-30 05:16 | -41.13407 | 173.34942 | 7035 ft | 158 kts | 44° |
| 2026-04-30 05:16 | -41.12610 | 173.35936 | 7363 ft | 157 kts | 61° |
| 2026-04-30 05:16 | -41.12407 | 173.37270 | 7724 ft | 146 kts | 99° |
| 2026-04-30 05:17 | -41.12559 | 173.38587 | 8083 ft | 144 kts | 107° |
| 2026-04-30 05:17 | -41.12770 | 173.39892 | 8434 ft | 145 kts | 108° |
| 2026-04-30 05:17 | -41.13001 | 173.41195 | 8783 ft | 146 kts | 109° |
| 2026-04-30 05:17 | -41.13250 | 173.42551 | 8956 ft | 158 kts | 109° |
| 2026-04-30 05:18 | -41.13537 | 173.43992 | 9014 ft | 170 kts | 110° |
| 2026-04-30 05:18 | -41.13859 | 173.45547 | 9034 ft | 178 kts | 110° |
| 2026-04-30 05:18 | -41.14193 | 173.47146 | 9035 ft | 184 kts | 110° |
| 2026-04-30 05:18 | -41.14529 | 173.48819 | 9033 ft | 188 kts | 109° |
| 2026-04-30 05:19 | -41.14862 | 173.50496 | 9033 ft | 189 kts | 109° |
| 2026-04-30 05:19 | -41.15203 | 173.52183 | 9031 ft | 191 kts | 109° |
| 2026-04-30 05:19 | -41.15546 | 173.53895 | 9032 ft | 191 kts | 109° |
| 2026-04-30 05:19 | -41.15773 | 173.55033 | 9030 ft | 191 kts | 109° |
| 2026-04-30 05:20 | -41.16113 | 173.56712 | 9011 ft | 189 kts | 109° |
| 2026-04-30 05:20 | -41.16405 | 173.58407 | 9002 ft | 187 kts | 105° |
| 2026-04-30 05:20 | -41.16617 | 173.60112 | 9000 ft | 185 kts | 104° |
| 2026-04-30 05:20 | -41.16841 | 173.61802 | 9000 ft | 184 kts | 105° |
| 2026-04-30 05:21 | -41.17097 | 173.63439 | 9001 ft | 182 kts | 107° |
| 2026-04-30 05:21 | -41.17387 | 173.65080 | 9002 ft | 181 kts | 108° |
| 2026-04-30 05:21 | -41.17695 | 173.66693 | 9005 ft | 181 kts | 109° |
| 2026-04-30 05:21 | -41.18019 | 173.68307 | 9013 ft | 180 kts | 111° |
| 2026-04-30 05:22 | -41.18408 | 173.69874 | 9019 ft | 179 kts | 113° |
| 2026-04-30 05:22 | -41.18774 | 173.71469 | 9019 ft | 180 kts | 110° |
| 2026-04-30 05:22 | -41.19057 | 173.73087 | 9020 ft | 181 kts | 107° |
| 2026-04-30 05:22 | -41.19333 | 173.74716 | 9016 ft | 180 kts | 111° |
| 2026-04-30 05:23 | -41.19740 | 173.75662 | 9007 ft | 174 kts | 135° |